Hauptseite
METAR-TAF:

METAR-TAF

Flughäfen :

Flughafen Tokio-Haneda

Tokio-Haneda, Japan

Breite: 35-33N, Länge: 139-47E, Höhe: 5 m

Beobachtung

Neuester Wetterbericht von vor 26 Minuten, um 21:30 UTC
Wind 8 kt aus Süd/Südwest, variierte zwischen Süd und Südwest
Temperatur 29°C
Luftfeuchtigkeit 79%
Luftdruck 1011 hPa
Sichtweite 10 km oder mehr
Leicht bewölkt in der Höhe von 1500 ft
Durchbrochene Bewölkung in der Höhe von 20000 ft

METAR: RJTT 162130Z 21008KT 170V230 9999 FEW015 BKN200 29/25 Q1011 NOSIG RMK 1CU015 7AC200 A2988

Zeit: 06:56 (21:56 UTC)

Prognose

Neuester Wetterbericht von vor 4 Stunden und 51 Minuten, um 17:05 UTC
Gültige Prognose vom 16 um 18 UTC bis 18 um 00 UTC
Wind 13 kt aus Süd
Sichtweite 10 km oder mehr
Leicht bewölkt in der Höhe von 1000 ft
Aufgelockert bewölkt in der Höhe von 2500 ft

TAF: RJTT 161705Z 1618/1800 19013KT 9999 FEW010 SCT025

Wetterbeobachtungen und Prognosen von mehr als 4000 Flughäfen (METAR und TAF Bericht).

Die verfügbaren Stationen werden durch gelbe und rote Markierungen auf der Karte dargestellt.

Führen Sie die Maus auf sie, um den Namen der Station zu sehen.

Darauf klicken, um die Beobachtung von Wetterbeobachtungen und Prognosen zu sehen.

Um die Karte zu ändern : klicken Sie auf den grünen Tasten mit einem schwarzen Kreuz Zum Vergrößern, auf den grünen Button mit einem Gedankenstrich zu verkleinern, oder auf die grünen Pfeile für benachbarte Karten.


METAR-TAF: